sensor_id;sensor_type;location;lat;lon;timestamp;temperature;humidity
36372;DHT22;22398;51.346;12.372;2023-03-01T00:01:13;-0.90;94.80
36372;DHT22;22398;51.346;12.372;2023-03-01T00:06:17;-1.00;94.70
36372;DHT22;22398;51.346;12.372;2023-03-01T00:11:23;-1.00;94.90
36372;DHT22;22398;51.346;12.372;2023-03-01T00:16:29;-1.00;94.80
36372;DHT22;22398;51.346;12.372;2023-03-01T00:21:33;-3.30;94.30
36372;DHT22;22398;51.346;12.372;2023-03-01T00:26:38;-1.00;94.80
36372;DHT22;22398;51.346;12.372;2023-03-01T00:31:42;-1.10;94.90
36372;DHT22;22398;51.346;12.372;2023-03-01T00:36:45;-1.10;94.90
36372;DHT22;22398;51.346;12.372;2023-03-01T00:41:50;-1.20;94.90
36372;DHT22;22398;51.346;12.372;2023-03-01T00:46:53;-1.20;95.10
36372;DHT22;22398;51.346;12.372;2023-03-01T00:51:56;-1.30;95.10
36372;DHT22;22398;51.346;12.372;2023-03-01T00:57:01;-1.30;95.20
36372;DHT22;22398;51.346;12.372;2023-03-01T01:02:04;-1.40;95.30
36372;DHT22;22398;51.346;12.372;2023-03-01T01:07:08;-1.50;95.30
36372;DHT22;22398;51.346;12.372;2023-03-01T01:12:13;-1.50;95.50
36372;DHT22;22398;51.346;12.372;2023-03-01T01:17:17;-1.60;95.50
36372;DHT22;22398;51.346;12.372;2023-03-01T01:22:20;-1.70;95.60
36372;DHT22;22398;51.346;12.372;2023-03-01T01:27:25;-1.70;95.80
36372;DHT22;22398;51.346;12.372;2023-03-01T01:32:28;-1.70;95.90
36372;DHT22;22398;51.346;12.372;2023-03-01T01:37:32;-1.70;96.10
36372;DHT22;22398;51.346;12.372;2023-03-01T01:42:37;-1.80;95.90
36372;DHT22;22398;51.346;12.372;2023-03-01T01:47:40;-2.00;96.10
36372;DHT22;22398;51.346;12.372;2023-03-01T01:52:43;-2.00;96.40
36372;DHT22;22398;51.346;12.372;2023-03-01T01:57:51;-2.00;96.40
36372;DHT22;22398;51.346;12.372;2023-03-01T02:02:58;-2.00;96.60
36372;DHT22;22398;51.346;12.372;2023-03-01T02:08:03;-2.00;96.80
36372;DHT22;22398;51.346;12.372;2023-03-01T02:13:08;-1.90;96.90
36372;DHT22;22398;51.346;12.372;2023-03-01T02:18:14;-2.10;97.00
36372;DHT22;22398;51.346;12.372;2023-03-01T02:23:20;-2.10;97.10
36372;DHT22;22398;51.346;12.372;2023-03-01T02:28:29;-2.20;97.10
36372;DHT22;22398;51.346;12.372;2023-03-01T02:33:34;-2.40;97.20
36372;DHT22;22398;51.346;12.372;2023-03-01T02:38:38;-2.20;97.50
36372;DHT22;22398;51.346;12.372;2023-03-01T02:43:42;-2.50;97.60
36372;DHT22;22398;51.346;12.372;2023-03-01T02:48:49;-2.50;97.80
36372;DHT22;22398;51.346;12.372;2023-03-01T02:53:59;-2.60;97.90
36372;DHT22;22398;51.346;12.372;2023-03-01T02:59:06;-2.70;98.00
36372;DHT22;22398;51.346;12.372;2023-03-01T03:04:14;-2.80;98.30
36372;DHT22;22398;51.346;12.372;2023-03-01T03:09:21;-2.80;98.60
36372;DHT22;22398;51.346;12.372;2023-03-01T03:14:26;-2.80;98.70
36372;DHT22;22398;51.346;12.372;2023-03-01T03:19:29;-2.80;99.00
36372;DHT22;22398;51.346;12.372;2023-03-01T03:24:33;-2.90;99.10
36372;DHT22;22398;51.346;12.372;2023-03-01T03:29:41;-2.80;99.40
36372;DHT22;22398;51.346;12.372;2023-03-01T03:34:45;-2.70;99.50
36372;DHT22;22398;51.346;12.372;2023-03-01T03:39:48;-2.70;99.80
36372;DHT22;22398;51.346;12.372;2023-03-01T03:44:53;-2.60;99.80
36372;DHT22;22398;51.346;12.372;2023-03-01T03:49:56;-2.60;99.90
36372;DHT22;22398;51.346;12.372;2023-03-01T03:55:00;-2.70;99.90
36372;DHT22;22398;51.346;12.372;2023-03-01T04:00:07;-2.70;99.90
36372;DHT22;22398;51.346;12.372;2023-03-01T04:05:18;-2.70;99.90
36372;DHT22;22398;51.346;12.372;2023-03-01T04:10:22;-2.70;99.90
36372;DHT22;22398;51.346;12.372;2023-03-01T04:15:28;-2.70;99.90
36372;DHT22;22398;51.346;12.372;2023-03-01T04:20:34;-2.70;99.90
36372;DHT22;22398;51.346;12.372;2023-03-01T04:25:38;-2.80;99.90
36372;DHT22;22398;51.346;12.372;2023-03-01T04:30:43;-2.90;99.90
36372;DHT22;22398;51.346;12.372;2023-03-01T04:35:47;-2.80;99.90
36372;DHT22;22398;51.346;12.372;2023-03-01T04:40:51;-2.80;99.90
36372;DHT22;22398;51.346;12.372;2023-03-01T04:46:00;-3.00;99.90
36372;DHT22;22398;51.346;12.372;2023-03-01T04:51:05;-3.10;99.90
36372;DHT22;22398;51.346;12.372;2023-03-01T04:56:09;-3.10;99.90
36372;DHT22;22398;51.346;12.372;2023-03-01T05:01:16;-3.10;99.90
36372;DHT22;22398;51.346;12.372;2023-03-01T05:06:20;-3.10;99.90
36372;DHT22;22398;51.346;12.372;2023-03-01T05:11:23;-3.10;99.90
36372;DHT22;22398;51.346;12.372;2023-03-01T05:16:28;-3.20;99.90
36372;DHT22;22398;51.346;12.372;2023-03-01T05:21:36;-3.10;99.90
36372;DHT22;22398;51.346;12.372;2023-03-01T05:27:02;-3.20;99.90
36372;DHT22;22398;51.346;12.372;2023-03-01T05:32:07;-3.30;99.90
36372;DHT22;22398;51.346;12.372;2023-03-01T05:37:10;-3.30;99.90
36372;DHT22;22398;51.346;12.372;2023-03-01T05:42:14;-3.40;99.90
36372;DHT22;22398;51.346;12.372;2023-03-01T05:47:18;-3.40;99.90
36372;DHT22;22398;51.346;12.372;2023-03-01T05:52:23;-3.40;99.90
36372;DHT22;22398;51.346;12.372;2023-03-01T05:57:28;-3.40;99.90
36372;DHT22;22398;51.346;12.372;2023-03-01T06:02:33;-3.30;99.90
36372;DHT22;22398;51.346;12.372;2023-03-01T06:07:36;-3.30;99.90
36372;DHT22;22398;51.346;12.372;2023-03-01T06:12:41;-3.30;99.90
36372;DHT22;22398;51.346;12.372;2023-03-01T06:17:46;-3.30;99.90
36372;DHT22;22398;51.346;12.372;2023-03-01T06:22:50;-3.20;99.90
36372;DHT22;22398;51.346;12.372;2023-03-01T06:27:55;-3.20;99.90
36372;DHT22;22398;51.346;12.372;2023-03-01T06:33:00;-3.10;99.90
36372;DHT22;22398;51.346;12.372;2023-03-01T06:38:05;-3.00;99.90
36372;DHT22;22398;51.346;12.372;2023-03-01T06:43:08;-2.90;99.90
36372;DHT22;22398;51.346;12.372;2023-03-01T06:48:13;-2.80;99.90
36372;DHT22;22398;51.346;12.372;2023-03-01T06:53:16;-2.70;99.90
36372;DHT22;22398;51.346;12.372;2023-03-01T06:58:20;-2.50;99.90
36372;DHT22;22398;51.346;12.372;2023-03-01T07:03:25;-2.30;99.90
36372;DHT22;22398;51.346;12.372;2023-03-01T07:08:28;-2.10;99.90
36372;DHT22;22398;51.346;12.372;2023-03-01T07:13:31;-2.00;99.90
36372;DHT22;22398;51.346;12.372;2023-03-01T07:18:36;-1.80;99.90
36372;DHT22;22398;51.346;12.372;2023-03-01T07:23:39;-1.60;99.90
36372;DHT22;22398;51.346;12.372;2023-03-01T07:28:42;-1.50;99.90
36372;DHT22;22398;51.346;12.372;2023-03-01T07:33:47;-1.30;99.90
36372;DHT22;22398;51.346;12.372;2023-03-01T07:38:50;-1.10;99.90
36372;DHT22;22398;51.346;12.372;2023-03-01T07:44:02;-0.80;99.90
36372;DHT22;22398;51.346;12.372;2023-03-01T07:49:09;-0.50;99.90
36372;DHT22;22398;51.346;12.372;2023-03-01T07:54:13;-0.30;99.90
36372;DHT22;22398;51.346;12.372;2023-03-01T07:59:16;0.00;99.90
36372;DHT22;22398;51.346;12.372;2023-03-01T08:04:21;0.20;99.90
36372;DHT22;22398;51.346;12.372;2023-03-01T08:09:24;0.50;99.90
36372;DHT22;22398;51.346;12.372;2023-03-01T08:14:28;0.60;99.90
36372;DHT22;22398;51.346;12.372;2023-03-01T08:19:33;0.90;99.90
36372;DHT22;22398;51.346;12.372;2023-03-01T08:24:36;1.10;99.90
36372;DHT22;22398;51.346;12.372;2023-03-01T08:29:40;1.40;99.90
36372;DHT22;22398;51.346;12.372;2023-03-01T08:34:47;1.70;99.90
36372;DHT22;22398;51.346;12.372;2023-03-01T08:39:50;1.90;99.90
36372;DHT22;22398;51.346;12.372;2023-03-01T08:44:54;2.20;99.90
36372;DHT22;22398;51.346;12.372;2023-03-01T08:50:00;2.30;99.60
36372;DHT22;22398;51.346;12.372;2023-03-01T08:55:03;2.50;99.20
36372;DHT22;22398;51.346;12.372;2023-03-01T09:00:08;2.70;98.80
36372;DHT22;22398;51.346;12.372;2023-03-01T09:05:14;3.00;98.60
36372;DHT22;22398;51.346;12.372;2023-03-01T09:10:19;3.20;98.00
36372;DHT22;22398;51.346;12.372;2023-03-01T09:15:22;3.40;97.60
36372;DHT22;22398;51.346;12.372;2023-03-01T09:20:27;3.60;96.90
36372;DHT22;22398;51.346;12.372;2023-03-01T09:25:30;3.60;96.20
36372;DHT22;22398;51.346;12.372;2023-03-01T09:30:33;3.50;95.80
36372;DHT22;22398;51.346;12.372;2023-03-01T09:35:38;3.80;95.40
36372;DHT22;22398;51.346;12.372;2023-03-01T09:40:47;3.90;95.10
36372;DHT22;22398;51.346;12.372;2023-03-01T09:45:53;4.10;94.60
36372;DHT22;22398;51.346;12.372;2023-03-01T09:51:02;4.20;94.10
36372;DHT22;22398;51.346;12.372;2023-03-01T09:56:15;4.30;93.90
36372;DHT22;22398;51.346;12.372;2023-03-01T10:01:34;4.50;93.50
36372;DHT22;22398;51.346;12.372;2023-03-01T10:06:45;4.40;92.80
36372;DHT22;22398;51.346;12.372;2023-03-01T10:11:55;4.50;92.50
36372;DHT22;22398;51.346;12.372;2023-03-01T10:17:02;4.60;92.10
36372;DHT22;22398;51.346;12.372;2023-03-01T10:22:13;4.50;91.90
36372;DHT22;22398;51.346;12.372;2023-03-01T10:27:22;4.80;91.80
36372;DHT22;22398;51.346;12.372;2023-03-01T10:32:26;5.00;91.50
36372;DHT22;22398;51.346;12.372;2023-03-01T10:37:30;5.20;91.10
36372;DHT22;22398;51.346;12.372;2023-03-01T10:42:36;5.40;90.90
36372;DHT22;22398;51.346;12.372;2023-03-01T10:47:41;5.40;90.50
36372;DHT22;22398;51.346;12.372;2023-03-01T10:52:57;5.30;90.10
36372;DHT22;22398;51.346;12.372;2023-03-01T10:58:08;5.50;89.70
36372;DHT22;22398;51.346;12.372;2023-03-01T11:03:13;5.50;88.40
36372;DHT22;22398;51.346;12.372;2023-03-01T11:08:29;5.50;87.60
36372;DHT22;22398;51.346;12.372;2023-03-01T11:13:37;5.50;87.20
36372;DHT22;22398;51.346;12.372;2023-03-01T11:18:42;5.50;86.90
36372;DHT22;22398;51.346;12.372;2023-03-01T11:23:50;5.60;86.80
36372;DHT22;22398;51.346;12.372;2023-03-01T11:28:55;5.50;86.10
36372;DHT22;22398;51.346;12.372;2023-03-01T11:34:05;5.50;85.60
36372;DHT22;22398;51.346;12.372;2023-03-01T11:39:20;5.70;85.50
36372;DHT22;22398;51.346;12.372;2023-03-01T11:44:28;5.60;84.90
36372;DHT22;22398;51.346;12.372;2023-03-01T11:50:09;5.70;84.80
36372;DHT22;22398;51.346;12.372;2023-03-01T11:55:30;5.80;84.50
36372;DHT22;22398;51.346;12.372;2023-03-01T12:00:59;5.90;84.20
36372;DHT22;22398;51.346;12.372;2023-03-01T12:11:53;5.90;83.30
36372;DHT22;22398;51.346;12.372;2023-03-01T12:17:22;5.90;82.80
36372;DHT22;22398;51.346;12.372;2023-03-01T12:22:31;5.90;82.40
36372;DHT22;22398;51.346;12.372;2023-03-01T12:27:46;5.90;82.00
36372;DHT22;22398;51.346;12.372;2023-03-01T12:32:59;5.90;81.40
36372;DHT22;22398;51.346;12.372;2023-03-01T12:38:18;6.10;80.80
36372;DHT22;22398;51.346;12.372;2023-03-01T12:43:36;6.00;80.30
36372;DHT22;22398;51.346;12.372;2023-03-01T12:48:49;6.10;80.10
36372;DHT22;22398;51.346;12.372;2023-03-01T12:53:56;6.20;79.90
36372;DHT22;22398;51.346;12.372;2023-03-01T12:59:12;6.30;79.50
36372;DHT22;22398;51.346;12.372;2023-03-01T13:04:23;6.30;79.50
36372;DHT22;22398;51.346;12.372;2023-03-01T13:09:36;6.40;79.40
36372;DHT22;22398;51.346;12.372;2023-03-01T13:14:46;6.50;78.90
36372;DHT22;22398;51.346;12.372;2023-03-01T13:19:56;6.60;78.60
36372;DHT22;22398;51.346;12.372;2023-03-01T13:25:10;6.70;78.00
36372;DHT22;22398;51.346;12.372;2023-03-01T13:30:39;6.60;77.30
36372;DHT22;22398;51.346;12.372;2023-03-01T13:35:44;6.70;77.10
36372;DHT22;22398;51.346;12.372;2023-03-01T13:40:59;6.70;76.60
36372;DHT22;22398;51.346;12.372;2023-03-01T13:46:09;6.70;75.90
36372;DHT22;22398;51.346;12.372;2023-03-01T13:51:14;6.70;75.60
36372;DHT22;22398;51.346;12.372;2023-03-01T13:56:20;6.70;75.20
36372;DHT22;22398;51.346;12.372;2023-03-01T14:01:28;6.80;75.00
36372;DHT22;22398;51.346;12.372;2023-03-01T14:06:33;6.90;73.90
36372;DHT22;22398;51.346;12.372;2023-03-01T14:11:46;6.80;73.00
36372;DHT22;22398;51.346;12.372;2023-03-01T14:17:02;6.80;72.70
36372;DHT22;22398;51.346;12.372;2023-03-01T14:22:17;6.80;72.20
36372;DHT22;22398;51.346;12.372;2023-03-01T14:27:24;6.80;71.50
36372;DHT22;22398;51.346;12.372;2023-03-01T14:32:31;6.90;70.90
36372;DHT22;22398;51.346;12.372;2023-03-01T14:37:35;6.80;70.10
36372;DHT22;22398;51.346;12.372;2023-03-01T14:42:38;6.70;69.50
36372;DHT22;22398;51.346;12.372;2023-03-01T14:47:44;6.80;69.30
36372;DHT22;22398;51.346;12.372;2023-03-01T14:52:50;6.80;68.80
36372;DHT22;22398;51.346;12.372;2023-03-01T14:57:57;6.70;68.40
36372;DHT22;22398;51.346;12.372;2023-03-01T15:03:08;6.70;68.20
36372;DHT22;22398;51.346;12.372;2023-03-01T15:08:19;6.60;67.80
36372;DHT22;22398;51.346;12.372;2023-03-01T15:13:25;6.60;67.80
36372;DHT22;22398;51.346;12.372;2023-03-01T15:18:30;6.50;67.70
36372;DHT22;22398;51.346;12.372;2023-03-01T15:23:34;6.50;67.90
36372;DHT22;22398;51.346;12.372;2023-03-01T15:28:49;6.40;67.90
36372;DHT22;22398;51.346;12.372;2023-03-01T15:34:08;6.40;67.70
36372;DHT22;22398;51.346;12.372;2023-03-01T15:39:32;6.30;67.70
36372;DHT22;22398;51.346;12.372;2023-03-01T15:44:40;6.20;67.90
36372;DHT22;22398;51.346;12.372;2023-03-01T15:49:52;6.10;68.00
36372;DHT22;22398;51.346;12.372;2023-03-01T15:55:01;6.10;67.70
36372;DHT22;22398;51.346;12.372;2023-03-01T16:00:06;6.00;67.50
36372;DHT22;22398;51.346;12.372;2023-03-01T16:05:19;5.90;67.50
36372;DHT22;22398;51.346;12.372;2023-03-01T16:10:23;5.80;67.70
36372;DHT22;22398;51.346;12.372;2023-03-01T16:15:29;5.70;67.30
36372;DHT22;22398;51.346;12.372;2023-03-01T16:20:36;5.60;67.50
36372;DHT22;22398;51.346;12.372;2023-03-01T16:25:39;5.50;67.50
36372;DHT22;22398;51.346;12.372;2023-03-01T16:30:46;5.40;67.60
36372;DHT22;22398;51.346;12.372;2023-03-01T16:35:52;5.20;67.50
36372;DHT22;22398;51.346;12.372;2023-03-01T16:40:56;5.00;67.70
36372;DHT22;22398;51.346;12.372;2023-03-01T16:45:59;4.90;67.80
36372;DHT22;22398;51.346;12.372;2023-03-01T16:51:05;4.70;68.10
36372;DHT22;22398;51.346;12.372;2023-03-01T16:56:10;4.60;68.40
36372;DHT22;22398;51.346;12.372;2023-03-01T17:01:16;4.40;68.80
36372;DHT22;22398;51.346;12.372;2023-03-01T17:06:21;4.30;69.00
36372;DHT22;22398;51.346;12.372;2023-03-01T17:11:27;4.10;69.20
36372;DHT22;22398;51.346;12.372;2023-03-01T17:16:31;3.90;69.60
36372;DHT22;22398;51.346;12.372;2023-03-01T17:21:36;3.80;69.90
36372;DHT22;22398;51.346;12.372;2023-03-01T17:26:40;3.70;70.30
36372;DHT22;22398;51.346;12.372;2023-03-01T17:31:44;3.50;70.60
36372;DHT22;22398;51.346;12.372;2023-03-01T17:36:49;3.50;71.00
36372;DHT22;22398;51.346;12.372;2023-03-01T17:41:54;3.40;71.20
36372;DHT22;22398;51.346;12.372;2023-03-01T17:46:57;3.30;71.60
36372;DHT22;22398;51.346;12.372;2023-03-01T17:52:02;3.20;71.80
36372;DHT22;22398;51.346;12.372;2023-03-01T17:57:06;3.10;72.20
36372;DHT22;22398;51.346;12.372;2023-03-01T18:02:11;3.00;72.40
36372;DHT22;22398;51.346;12.372;2023-03-01T18:07:16;2.90;72.50
36372;DHT22;22398;51.346;12.372;2023-03-01T18:12:19;2.90;72.70
36372;DHT22;22398;51.346;12.372;2023-03-01T18:17:23;2.80;72.90
36372;DHT22;22398;51.346;12.372;2023-03-01T18:22:28;2.70;73.00
36372;DHT22;22398;51.346;12.372;2023-03-01T18:27:33;2.60;73.20
36372;DHT22;22398;51.346;12.372;2023-03-01T18:32:37;2.50;73.50
36372;DHT22;22398;51.346;12.372;2023-03-01T18:37:43;2.40;73.70
36372;DHT22;22398;51.346;12.372;2023-03-01T18:42:48;2.40;73.70
36372;DHT22;22398;51.346;12.372;2023-03-01T18:47:52;2.30;73.80
36372;DHT22;22398;51.346;12.372;2023-03-01T18:52:57;2.40;74.30
36372;DHT22;22398;51.346;12.372;2023-03-01T18:58:00;2.30;74.00
36372;DHT22;22398;51.346;12.372;2023-03-01T19:03:04;2.20;74.00
36372;DHT22;22398;51.346;12.372;2023-03-01T19:08:09;2.10;74.30
36372;DHT22;22398;51.346;12.372;2023-03-01T19:13:12;2.10;74.90
36372;DHT22;22398;51.346;12.372;2023-03-01T19:18:16;2.10;74.70
36372;DHT22;22398;51.346;12.372;2023-03-01T19:23:22;2.00;74.80
36372;DHT22;22398;51.346;12.372;2023-03-01T19:28:25;1.90;74.90
36372;DHT22;22398;51.346;12.372;2023-03-01T19:33:30;1.90;75.00
36372;DHT22;22398;51.346;12.372;2023-03-01T19:38:36;1.90;75.10
36372;DHT22;22398;51.346;12.372;2023-03-01T19:43:41;1.90;75.30
36372;DHT22;22398;51.346;12.372;2023-03-01T19:48:44;1.80;75.30
36372;DHT22;22398;51.346;12.372;2023-03-01T19:53:51;1.80;75.30
36372;DHT22;22398;51.346;12.372;2023-03-01T19:58:55;1.70;75.30
36372;DHT22;22398;51.346;12.372;2023-03-01T20:04:02;1.70;75.50
36372;DHT22;22398;51.346;12.372;2023-03-01T20:09:08;1.70;75.60
36372;DHT22;22398;51.346;12.372;2023-03-01T20:14:22;1.80;75.60
36372;DHT22;22398;51.346;12.372;2023-03-01T20:19:26;1.70;75.50
36372;DHT22;22398;51.346;12.372;2023-03-01T20:24:30;1.50;75.70
36372;DHT22;22398;51.346;12.372;2023-03-01T20:29:34;1.90;76.00
36372;DHT22;22398;51.346;12.372;2023-03-01T20:34:38;1.30;76.20
36372;DHT22;22398;51.346;12.372;2023-03-01T20:39:43;1.30;76.70
36372;DHT22;22398;51.346;12.372;2023-03-01T20:44:47;1.30;76.40
36372;DHT22;22398;51.346;12.372;2023-03-01T20:49:50;1.30;76.50
36372;DHT22;22398;51.346;12.372;2023-03-01T20:54:55;1.30;76.60
36372;DHT22;22398;51.346;12.372;2023-03-01T20:59:59;1.20;76.50
36372;DHT22;22398;51.346;12.372;2023-03-01T21:05:03;1.20;76.80
36372;DHT22;22398;51.346;12.372;2023-03-01T21:10:09;1.10;77.00
36372;DHT22;22398;51.346;12.372;2023-03-01T21:15:13;1.00;77.20
36372;DHT22;22398;51.346;12.372;2023-03-01T21:20:30;1.00;77.40
36372;DHT22;22398;51.346;12.372;2023-03-01T21:25:34;0.90;77.50
36372;DHT22;22398;51.346;12.372;2023-03-01T21:30:37;0.80;77.60
36372;DHT22;22398;51.346;12.372;2023-03-01T21:35:41;0.80;78.00
36372;DHT22;22398;51.346;12.372;2023-03-01T21:40:46;0.80;78.30
36372;DHT22;22398;51.346;12.372;2023-03-01T21:45:49;0.80;78.40
36372;DHT22;22398;51.346;12.372;2023-03-01T21:50:57;0.70;78.50
36372;DHT22;22398;51.346;12.372;2023-03-01T21:56:01;0.80;78.80
36372;DHT22;22398;51.346;12.372;2023-03-01T22:01:06;0.80;78.80
36372;DHT22;22398;51.346;12.372;2023-03-01T22:06:13;0.70;78.80
36372;DHT22;22398;51.346;12.372;2023-03-01T22:16:38;0.60;79.00
36372;DHT22;22398;51.346;12.372;2023-03-01T22:21:44;0.60;79.20
36372;DHT22;22398;51.346;12.372;2023-03-01T22:26:49;0.40;79.20
36372;DHT22;22398;51.346;12.372;2023-03-01T22:31:54;0.30;80.00
36372;DHT22;22398;51.346;12.372;2023-03-01T22:36:58;0.20;79.60
36372;DHT22;22398;51.346;12.372;2023-03-01T22:42:01;0.10;79.90
36372;DHT22;22398;51.346;12.372;2023-03-01T22:47:08;0.00;80.10
36372;DHT22;22398;51.346;12.372;2023-03-01T22:52:12;0.00;80.60
36372;DHT22;22398;51.346;12.372;2023-03-01T22:57:15;0.10;81.00
36372;DHT22;22398;51.346;12.372;2023-03-01T23:02:20;0.00;81.00
36372;DHT22;22398;51.346;12.372;2023-03-01T23:07:26;0.00;81.10
36372;DHT22;22398;51.346;12.372;2023-03-01T23:12:30;-0.10;81.40
36372;DHT22;22398;51.346;12.372;2023-03-01T23:17:38;-0.10;81.50
36372;DHT22;22398;51.346;12.372;2023-03-01T23:22:46;-0.30;81.50
36372;DHT22;22398;51.346;12.372;2023-03-01T23:27:50;-0.40;81.90
36372;DHT22;22398;51.346;12.372;2023-03-01T23:32:56;-0.40;82.30
36372;DHT22;22398;51.346;12.372;2023-03-01T23:38:01;-0.50;82.30
36372;DHT22;22398;51.346;12.372;2023-03-01T23:43:05;-0.50;82.80
36372;DHT22;22398;51.346;12.372;2023-03-01T23:48:13;-0.50;83.30
36372;DHT22;22398;51.346;12.372;2023-03-01T23:53:17;-0.60;83.10
36372;DHT22;22398;51.346;12.372;2023-03-01T23:58:22;-0.60;83.80
